Time;durP1;ratioP1;P1;durP2;ratioP2;P2;SDS_P1;SDS_P2;PMS_P1;PMS_P2;Temp;Humidity;BMP_temperature;BMP_pressure;BME280_temperature;BME280_humidity;BME280_pressure;Samples;Min_cycle;Max_cycle;Signal;HPM_P1;HPM_P2
2021/11/29 00:02:04;;;;;;;16.90;11.83;;;;;;;;;;5030332;28;20145;-87
2021/11/29 00:04:30;;;;;;;16.13;11.83;;;;;;;;;;5013824;28;20080;-88
2021/11/29 00:06:55;;;;;;;17.17;12.77;;;;;;;;;;5031040;28;20418;-88
2021/11/29 00:09:20;;;;;;;16.47;12.63;;;;;;;;;;5016627;28;20029;-88
2021/11/29 00:11:46;;;;;;;18.70;12.87;;;;;;;;;;5009877;28;20120;-87
2021/11/29 00:14:11;;;;;;;14.40;11.63;;;;;;;;;;5012513;28;20068;-87
2021/11/29 00:16:36;;;;;;;13.80;11.17;;;;;;;;;;5013405;28;20458;-88
2021/11/29 00:19:04;;;;;;;17.13;12.27;;;;;;;;;;5025901;28;20032;-88
2021/11/29 00:21:30;;;;;;;15.50;11.77;;;;;;;;;;5032836;28;20029;-88
2021/11/29 00:23:55;;;;;;;16.27;11.73;;;;;;;;;;5033410;28;20028;-89
2021/11/29 00:26:21;;;;;;;17.50;12.13;;;;;;;;;;5007842;28;20037;-89
2021/11/29 00:28:46;;;;;;;15.97;12.07;;;;;;;;;;5021842;28;20037;-89
2021/11/29 00:31:12;;;;;;;16.23;11.33;;;;;;;;;;5028243;28;20029;-88
2021/11/29 00:33:37;;;;;;;14.70;11.07;;;;;;;;;;5004323;28;20025;-91
2021/11/29 00:36:03;;;;;;;15.00;11.70;;;;;;;;;;5053168;28;20074;-88
2021/11/29 00:38:28;;;;;;;13.83;10.63;;;;;;;;;;5045817;28;20472;-89
2021/11/29 00:40:53;;;;;;;15.83;11.30;;;;;;;;;;5014401;28;20029;-89
2021/11/29 00:43:19;;;;;;;14.87;11.03;;;;;;;;;;5015646;28;20498;-88
2021/11/29 00:45:44;;;;;;;14.80;11.53;;;;;;;;;;5041502;28;20036;-89
2021/11/29 00:48:09;;;;;;;14.83;10.93;;;;;;;;;;5044959;28;20025;-89
2021/11/29 00:50:38;;;;;;;15.53;10.97;;;;;;;;;;5024281;28;20031;-88
2021/11/29 00:53:07;;;;;;;15.00;10.67;;;;;;;;;;5018531;28;20079;-89
2021/11/29 00:55:33;;;;;;;13.47;10.00;;;;;;;;;;5015234;28;20072;-90
2021/11/29 00:57:58;;;;;;;14.50;11.10;;;;;;;;;;5017849;28;20455;-90
2021/11/29 01:00:24;;;;;;;15.27;11.00;;;;;;;;;;5027799;28;20033;-86
2021/11/29 01:02:50;;;;;;;15.07;10.57;;;;;;;;;;5010280;28;20037;-87
2021/11/29 01:05:15;;;;;;;14.47;10.80;;;;;;;;;;5012943;28;20029;-88
2021/11/29 01:07:41;;;;;;;12.10;9.90;;;;;;;;;;5007925;28;20033;-88
2021/11/29 01:10:07;;;;;;;12.57;10.17;;;;;;;;;;5018235;28;20160;-87
2021/11/29 01:12:33;;;;;;;15.07;10.03;;;;;;;;;;5009378;28;20045;-87
2021/11/29 01:14:58;;;;;;;14.20;10.10;;;;;;;;;;5016309;28;21358;-87
2021/11/29 01:17:24;;;;;;;14.83;10.37;;;;;;;;;;4998472;28;20033;-87
2021/11/29 01:19:49;;;;;;;12.00;9.97;;;;;;;;;;5013301;28;20450;-90
2021/11/29 01:22:14;;;;;;;14.30;11.23;;;;;;;;;;5007620;28;20088;-88
2021/11/29 01:24:40;;;;;;;11.60;10.23;;;;;;;;;;5013778;28;20034;-89
2021/11/29 01:27:05;;;;;;;13.90;10.50;;;;;;;;;;5027960;28;20029;-89
2021/11/29 01:29:30;;;;;;;14.37;10.87;;;;;;;;;;5010582;28;20025;-88
2021/11/29 01:31:56;;;;;;;14.40;10.00;;;;;;;;;;5037600;28;20466;-89
2021/11/29 01:34:21;;;;;;;12.90;10.13;;;;;;;;;;5028466;28;20036;-88
2021/11/29 01:36:46;;;;;;;14.77;10.47;;;;;;;;;;5027550;28;20022;-89
2021/11/29 01:39:12;;;;;;;14.13;10.20;;;;;;;;;;5012447;28;20034;-89
2021/11/29 01:41:40;;;;;;;14.07;10.43;;;;;;;;;;4995470;28;20049;-89
2021/11/29 01:44:05;;;;;;;13.47;9.27;;;;;;;;;;5021966;28;20029;-89
2021/11/29 01:46:30;;;;;;;12.23;9.80;;;;;;;;;;5005597;28;20387;-88
2021/11/29 01:48:56;;;;;;;13.60;9.43;;;;;;;;;;4999182;28;20025;-88
2021/11/29 01:51:21;;;;;;;11.83;9.17;;;;;;;;;;5006188;28;20034;-89
2021/11/29 01:53:46;;;;;;;12.63;9.67;;;;;;;;;;5031906;28;20108;-90
2021/11/29 01:56:12;;;;;;;13.87;10.00;;;;;;;;;;5028346;28;20021;-88
2021/11/29 01:58:39;;;;;;;12.93;9.93;;;;;;;;;;5012564;28;20064;-89
2021/11/29 02:01:07;;;;;;;12.27;9.37;;;;;;;;;;5024998;28;20478;-89
2021/11/29 02:03:33;;;;;;;12.10;9.13;;;;;;;;;;5045790;28;20505;-89
2021/11/29 02:05:58;;;;;;;12.67;9.77;;;;;;;;;;5014770;28;20069;-89
2021/11/29 02:08:24;;;;;;;12.03;9.00;;;;;;;;;;5030575;28;20025;-89
2021/11/29 02:10:50;;;;;;;9.47;7.80;;;;;;;;;;5016489;28;20044;-88
2021/11/29 02:13:16;;;;;;;11.57;9.27;;;;;;;;;;5039886;28;20527;-90
2021/11/29 02:15:42;;;;;;;13.53;9.40;;;;;;;;;;5016580;28;20034;-89
2021/11/29 02:18:07;;;;;;;11.13;8.57;;;;;;;;;;5025276;28;20464;-89
2021/11/29 02:20:34;;;;;;;11.30;8.47;;;;;;;;;;5031500;28;20026;-88
2021/11/29 02:23:00;;;;;;;10.17;8.10;;;;;;;;;;5029311;28;20116;-88
2021/11/29 02:25:26;;;;;;;10.43;8.00;;;;;;;;;;5025903;28;20022;-87
2021/11/29 02:27:52;;;;;;;10.30;8.20;;;;;;;;;;5025395;28;20082;-88
2021/11/29 02:30:19;;;;;;;9.53;7.67;;;;;;;;;;5016373;28;20029;-86
2021/11/29 02:32:44;;;;;;;9.93;7.83;;;;;;;;;;5031331;28;20025;-88
2021/11/29 02:35:10;;;;;;;10.17;8.47;;;;;;;;;;5030285;28;20032;-88
2021/11/29 02:37:35;;;;;;;11.93;8.87;;;;;;;;;;5023445;28;20476;-88
2021/11/29 02:40:01;;;;;;;10.20;7.77;;;;;;;;;;5011939;28;20596;-88
2021/11/29 02:42:26;;;;;;;11.63;8.43;;;;;;;;;;5010715;28;20117;-88
2021/11/29 02:44:52;;;;;;;13.70;9.30;;;;;;;;;;5006112;28;20099;-86
2021/11/29 02:47:18;;;;;;;13.00;9.00;;;;;;;;;;5029935;28;20468;-88
2021/11/29 02:49:43;;;;;;;11.37;8.57;;;;;;;;;;5030584;28;20026;-88
2021/11/29 02:52:11;;;;;;;11.10;8.30;;;;;;;;;;5010544;28;20125;-88
2021/11/29 02:54:39;;;;;;;11.60;8.43;;;;;;;;;;5017859;28;20021;-89
2021/11/29 02:57:06;;;;;;;9.90;8.40;;;;;;;;;;5030680;28;20038;-89
2021/11/29 02:59:32;;;;;;;10.57;8.40;;;;;;;;;;5011568;28;20100;-90
2021/11/29 03:01:59;;;;;;;10.47;7.93;;;;;;;;;;5020963;28;20033;-90
2021/11/29 03:04:25;;;;;;;10.47;7.93;;;;;;;;;;5034725;28;20383;-89
2021/11/29 03:06:50;;;;;;;11.17;8.60;;;;;;;;;;5017656;28;20125;-89
2021/11/29 03:09:16;;;;;;;10.47;8.43;;;;;;;;;;5037577;28;20100;-89
2021/11/29 03:11:42;;;;;;;10.17;8.87;;;;;;;;;;5038646;28;20022;-88
2021/11/29 03:14:07;;;;;;;10.97;8.17;;;;;;;;;;5006899;28;20034;-89
2021/11/29 03:16:33;;;;;;;10.87;8.30;;;;;;;;;;5028282;28;20031;-88
2021/11/29 03:18:58;;;;;;;9.77;7.67;;;;;;;;;;5014453;28;20029;-87
2021/11/29 03:21:24;;;;;;;11.53;8.10;;;;;;;;;;5030725;28;20049;-88
2021/11/29 03:23:51;;;;;;;11.80;8.83;;;;;;;;;;5030876;28;20571;-89
2021/11/29 03:26:18;;;;;;;10.53;8.07;;;;;;;;;;5035741;28;20026;-88
2021/11/29 03:28:45;;;;;;;10.67;8.60;;;;;;;;;;5020222;28;20403;-89
2021/11/29 03:31:11;;;;;;;11.37;8.90;;;;;;;;;;5018083;28;20025;-89
2021/11/29 03:33:37;;;;;;;10.67;8.87;;;;;;;;;;5012559;28;20387;-89
2021/11/29 03:36:02;;;;;;;11.90;8.40;;;;;;;;;;5017005;28;20501;-88
2021/11/29 03:38:27;;;;;;;10.03;8.57;;;;;;;;;;5017777;28;20033;-90
2021/11/29 03:40:53;;;;;;;11.27;8.53;;;;;;;;;;5014176;28;20388;-88
2021/11/29 03:43:19;;;;;;;11.60;8.67;;;;;;;;;;5014193;28;20022;-88
2021/11/29 03:45:44;;;;;;;11.80;8.40;;;;;;;;;;5001200;28;20119;-87
2021/11/29 03:48:09;;;;;;;10.80;8.30;;;;;;;;;;5015093;28;20384;-87
2021/11/29 03:50:34;;;;;;;11.03;8.77;;;;;;;;;;5005882;28;20041;-88
2021/11/29 03:53:00;;;;;;;11.13;8.70;;;;;;;;;;5014649;28;20032;-89
2021/11/29 03:55:26;;;;;;;11.07;8.30;;;;;;;;;;5022372;28;20021;-86
2021/11/29 03:57:51;;;;;;;11.63;8.50;;;;;;;;;;5022849;28;20022;-85
2021/11/29 04:00:17;;;;;;;16.00;10.40;;;;;;;;;;5040022;28;20136;-84
2021/11/29 04:02:42;;;;;;;12.33;9.10;;;;;;;;;;5022870;28;20395;-89
2021/11/29 04:05:09;;;;;;;11.63;9.43;;;;;;;;;;5034906;28;20028;-88
2021/11/29 04:07:37;;;;;;;11.20;8.30;;;;;;;;;;5032757;28;20037;-88
2021/11/29 04:10:03;;;;;;;11.03;8.90;;;;;;;;;;5018471;28;20030;-87
2021/11/29 04:12:28;;;;;;;12.87;9.43;;;;;;;;;;5033032;28;20029;-88
2021/11/29 04:14:53;;;;;;;12.00;9.07;;;;;;;;;;5033123;28;20083;-88
2021/11/29 04:17:19;;;;;;;10.13;8.57;;;;;;;;;;5031389;28;20025;-89
2021/11/29 04:19:46;;;;;;;13.00;9.90;;;;;;;;;;5019404;28;20199;-87
2021/11/29 04:22:13;;;;;;;11.23;8.57;;;;;;;;;;5030695;28;20030;-87
2021/11/29 04:24:40;;;;;;;12.17;9.27;;;;;;;;;;5012942;28;20029;-88
2021/11/29 04:27:06;;;;;;;10.67;8.67;;;;;;;;;;5032608;28;20033;-87
2021/11/29 04:29:34;;;;;;;12.47;9.27;;;;;;;;;;5011958;28;20038;-88
2021/11/29 04:31:59;;;;;;;13.57;9.47;;;;;;;;;;5024380;28;20476;-88
2021/11/29 04:34:25;;;;;;;13.30;9.70;;;;;;;;;;5022716;28;20084;-85
2021/11/29 04:36:50;;;;;;;14.83;10.43;;;;;;;;;;5032315;28;20455;-88
2021/11/29 04:39:18;;;;;;;16.67;10.30;;;;;;;;;;5017200;28;20235;-87
2021/11/29 04:41:45;;;;;;;13.73;9.90;;;;;;;;;;5000327;28;20044;-88
2021/11/29 04:44:10;;;;;;;13.50;9.70;;;;;;;;;;5012478;28;20483;-88
2021/11/29 04:46:36;;;;;;;12.37;9.60;;;;;;;;;;5013826;28;20031;-88
2021/11/29 04:49:01;;;;;;;14.47;10.23;;;;;;;;;;5022572;28;20029;-87
2021/11/29 04:51:27;;;;;;;13.73;10.13;;;;;;;;;;5015672;28;20025;-88
2021/11/29 04:53:52;;;;;;;12.93;10.30;;;;;;;;;;5005792;28;20029;-87
2021/11/29 04:56:17;;;;;;;14.27;10.67;;;;;;;;;;5026375;28;20024;-89
2021/11/29 04:58:43;;;;;;;14.33;11.10;;;;;;;;;;5017725;28;20049;-88
2021/11/29 05:01:08;;;;;;;15.87;10.57;;;;;;;;;;5026935;28;20053;-89
2021/11/29 05:03:33;;;;;;;12.70;9.70;;;;;;;;;;5028250;28;20390;-88
2021/11/29 05:05:59;;;;;;;14.40;9.97;;;;;;;;;;5031886;28;20045;-88
2021/11/29 05:08:24;;;;;;;16.07;10.80;;;;;;;;;;5013490;28;20087;-87
2021/11/29 05:10:49;;;;;;;14.67;10.23;;;;;;;;;;5031359;28;20017;-88
2021/11/29 05:13:17;;;;;;;15.40;11.03;;;;;;;;;;5014805;28;20033;-88
2021/11/29 05:15:43;;;;;;;15.07;11.50;;;;;;;;;;5031320;28;20017;-88
2021/11/29 05:18:08;;;;;;;13.70;11.13;;;;;;;;;;5015466;28;20033;-89
2021/11/29 05:20:33;;;;;;;15.67;11.47;;;;;;;;;;5030263;28;20036;-88
2021/11/29 05:22:59;;;;;;;16.83;11.97;;;;;;;;;;5032793;28;20074;-89
2021/11/29 05:25:24;;;;;;;16.03;12.00;;;;;;;;;;5027357;28;20029;-88
2021/11/29 05:27:50;;;;;;;14.70;11.23;;;;;;;;;;5024936;28;20459;-89
2021/11/29 05:30:15;;;;;;;17.27;11.60;;;;;;;;;;5021112;28;20506;-88
2021/11/29 05:32:40;;;;;;;15.60;12.40;;;;;;;;;;5020914;28;20067;-89
2021/11/29 05:35:06;;;;;;;15.33;11.60;;;;;;;;;;5010768;28;20052;-91
2021/11/29 05:37:31;;;;;;;16.60;10.83;;;;;;;;;;5029817;28;20032;-90
2021/11/29 05:39:58;;;;;;;16.40;11.17;;;;;;;;;;5028567;28;20127;-89
2021/11/29 05:42:23;;;;;;;19.40;12.47;;;;;;;;;;5012383;28;20025;-90
2021/11/29 05:44:50;;;;;;;16.63;12.60;;;;;;;;;;5009565;28;20033;-89
2021/11/29 05:47:22;;;;;;;16.83;12.47;;;;;;;;;;5015978;28;20025;-89
2021/11/29 05:49:50;;;;;;;17.63;12.43;;;;;;;;;;5013276;28;20033;-89
2021/11/29 05:52:16;;;;;;;16.67;12.57;;;;;;;;;;5029475;28;20022;-86
2021/11/29 05:54:41;;;;;;;19.87;12.80;;;;;;;;;;5003825;28;20032;-86
2021/11/29 05:57:07;;;;;;;19.30;12.53;;;;;;;;;;5011393;28;20022;-85
2021/11/29 05:59:32;;;;;;;18.80;12.67;;;;;;;;;;5013909;28;20053;-88
2021/11/29 06:01:58;;;;;;;17.87;13.60;;;;;;;;;;5014517;28;20021;-89
2021/11/29 06:04:23;;;;;;;21.50;15.40;;;;;;;;;;5015187;28;20503;-86
2021/11/29 06:06:48;;;;;;;19.90;13.23;;;;;;;;;;5028558;28;20037;-90
2021/11/29 06:09:14;;;;;;;23.90;14.27;;;;;;;;;;5018178;28;20018;-89
2021/11/29 06:11:40;;;;;;;21.27;13.83;;;;;;;;;;5024216;28;20017;-91
2021/11/29 06:14:05;;;;;;;20.03;13.60;;;;;;;;;;5033207;28;20056;-91
2021/11/29 06:16:31;;;;;;;21.80;14.73;;;;;;;;;;5033151;28;20558;-91
2021/11/29 06:18:56;;;;;;;21.77;14.40;;;;;;;;;;5016699;28;20021;-91
2021/11/29 06:21:21;;;;;;;26.40;16.07;;;;;;;;;;5014545;28;20487;-90
2021/11/29 06:23:47;;;;;;;24.90;16.47;;;;;;;;;;5014766;28;20188;-90
2021/11/29 06:26:12;;;;;;;22.17;15.00;;;;;;;;;;5030784;28;20075;-89
2021/11/29 06:28:40;;;;;;;23.20;15.83;;;;;;;;;;5025971;28;20026;-90
2021/11/29 06:31:06;;;;;;;25.27;16.63;;;;;;;;;;5015888;28;20517;-89
2021/11/29 06:33:31;;;;;;;22.43;15.53;;;;;;;;;;5014439;28;20037;-91
2021/11/29 06:35:59;;;;;;;24.33;15.90;;;;;;;;;;5012083;28;20030;-90
2021/11/29 06:38:26;;;;;;;22.43;16.67;;;;;;;;;;5032362;28;20048;-91
2021/11/29 06:40:52;;;;;;;24.53;15.17;;;;;;;;;;5034906;28;20033;-91
2021/11/29 06:43:21;;;;;;;24.20;16.47;;;;;;;;;;5033741;28;20128;-92
2021/11/29 06:45:46;;;;;;;24.13;15.60;;;;;;;;;;5031831;28;20030;-91
2021/11/29 06:48:13;;;;;;;25.03;16.53;;;;;;;;;;5022070;28;20490;-87
2021/11/29 06:50:38;;;;;;;25.97;16.57;;;;;;;;;;5011962;28;20030;-89
2021/11/29 06:53:04;;;;;;;23.47;15.67;;;;;;;;;;5033454;28;20029;-87
2021/11/29 06:55:33;;;;;;;26.20;16.97;;;;;;;;;;5033726;28;20025;-88
2021/11/29 06:57:59;;;;;;;28.17;17.07;;;;;;;;;;5032250;28;20036;-89
2021/11/29 07:00:24;;;;;;;23.13;16.13;;;;;;;;;;5034232;28;20041;-87
2021/11/29 07:02:51;;;;;;;22.80;16.20;;;;;;;;;;5017762;28;20534;-89
2021/11/29 07:05:16;;;;;;;24.20;16.23;;;;;;;;;;5031871;28;20035;-88
2021/11/29 07:07:44;;;;;;;21.57;13.90;;;;;;;;;;5032609;28;20025;-88
2021/11/29 07:10:10;;;;;;;20.80;14.60;;;;;;;;;;5034377;28;20018;-88
2021/11/29 07:12:36;;;;;;;21.00;14.43;;;;;;;;;;5034337;28;20032;-87
2021/11/29 07:15:02;;;;;;;20.47;14.30;;;;;;;;;;5030834;28;20548;-87
2021/11/29 07:17:27;;;;;;;20.70;14.67;;;;;;;;;;5039296;28;20021;-90
2021/11/29 07:19:53;;;;;;;22.13;15.83;;;;;;;;;;5053993;28;20035;-89
2021/11/29 07:22:23;;;;;;;22.43;15.63;;;;;;;;;;5030630;28;20437;-86
2021/11/29 07:24:50;;;;;;;23.47;16.37;;;;;;;;;;5032492;28;20025;-87
2021/11/29 07:27:18;;;;;;;26.57;15.53;;;;;;;;;;5013012;28;20083;-89
2021/11/29 07:29:44;;;;;;;20.83;14.33;;;;;;;;;;5033846;28;20493;-87
2021/11/29 07:32:09;;;;;;;23.13;15.50;;;;;;;;;;5029425;28;20006;-87
2021/11/29 07:34:35;;;;;;;21.27;14.80;;;;;;;;;;5010103;28;20033;-87
2021/11/29 07:37:00;;;;;;;22.57;15.27;;;;;;;;;;5016437;28;20112;-87
2021/11/29 07:39:26;;;;;;;22.10;15.17;;;;;;;;;;5011385;28;20021;-88
2021/11/29 07:41:53;;;;;;;20.30;13.67;;;;;;;;;;5024189;28;20499;-88
2021/11/29 07:44:18;;;;;;;22.37;14.53;;;;;;;;;;5017920;28;20038;-88
2021/11/29 07:46:44;;;;;;;18.43;12.90;;;;;;;;;;5027908;28;20080;-88
2021/11/29 07:49:09;;;;;;;23.07;13.10;;;;;;;;;;5005901;28;20160;-88
2021/11/29 07:51:38;;;;;;;17.50;12.83;;;;;;;;;;4997214;28;20029;-90
2021/11/29 07:54:03;;;;;;;18.77;12.33;;;;;;;;;;5016133;28;20099;-88
2021/11/29 07:56:28;;;;;;;18.93;12.40;;;;;;;;;;5020062;28;20048;-88
2021/11/29 07:58:54;;;;;;;19.23;13.80;;;;;;;;;;5020592;28;20293;-88
2021/11/29 08:01:19;;;;;;;20.30;14.50;;;;;;;;;;5012650;28;20104;-89
2021/11/29 08:03:47;;;;;;;18.67;13.23;;;;;;;;;;5018396;28;20482;-90
2021/11/29 08:06:12;;;;;;;17.87;12.23;;;;;;;;;;5029710;28;20057;-91
2021/11/29 08:08:38;;;;;;;20.03;12.67;;;;;;;;;;5029658;28;20029;-90
2021/11/29 08:11:03;;;;;;;19.20;12.90;;;;;;;;;;5009604;28;20440;-90
2021/11/29 08:13:29;;;;;;;19.27;12.57;;;;;;;;;;5018082;28;20018;-87
2021/11/29 08:15:54;;;;;;;17.90;13.20;;;;;;;;;;5002100;28;20330;-89
2021/11/29 08:18:19;;;;;;;18.53;13.30;;;;;;;;;;5004843;28;20124;-88
2021/11/29 08:20:44;;;;;;;18.93;12.70;;;;;;;;;;5003437;28;20044;-88
2021/11/29 08:23:10;;;;;;;19.37;13.57;;;;;;;;;;5011247;28;20022;-88
2021/11/29 08:25:39;;;;;;;15.97;11.50;;;;;;;;;;5020366;28;20551;-87
2021/11/29 08:28:06;;;;;;;20.40;13.07;;;;;;;;;;5019872;28;20464;-88
2021/11/29 08:30:31;;;;;;;18.70;12.80;;;;;;;;;;5016842;28;20045;-89
2021/11/29 08:32:56;;;;;;;21.30;13.43;;;;;;;;;;4996877;28;20476;-89
2021/11/29 08:35:22;;;;;;;17.23;12.27;;;;;;;;;;5001906;28;20117;-87
2021/11/29 08:37:49;;;;;;;20.20;11.90;;;;;;;;;;5021715;28;21082;-85
2021/11/29 08:40:26;;;;;;;19.23;13.57;;;;;;;;;;5013105;28;20091;-88
2021/11/29 08:42:53;;;;;;;18.70;12.83;;;;;;;;;;5026934;28;20409;-87
2021/11/29 08:45:18;;;;;;;20.43;13.33;;;;;;;;;;5029385;28;20024;-88
2021/11/29 08:47:44;;;;;;;18.67;12.87;;;;;;;;;;5019606;28;20021;-88
2021/11/29 08:50:09;;;;;;;19.30;12.97;;;;;;;;;;4996755;28;20049;-85
2021/11/29 08:52:35;;;;;;;16.53;10.60;;;;;;;;;;5012037;28;20810;-88
2021/11/29 08:55:05;;;;;;;15.83;11.33;;;;;;;;;;5007498;28;20038;-88
2021/11/29 08:57:31;;;;;;;19.53;13.20;;;;;;;;;;5016511;28;20120;-88
2021/11/29 08:59:56;;;;;;;18.73;11.90;;;;;;;;;;5008509;28;20042;-88
2021/11/29 09:02:22;;;;;;;18.30;11.20;;;;;;;;;;5019484;28;20124;-88
2021/11/29 09:04:47;;;;;;;17.90;11.63;;;;;;;;;;5004757;28;20037;-89
2021/11/29 09:07:13;;;;;;;15.07;10.73;;;;;;;;;;5003697;28;20136;-89
2021/11/29 09:09:38;;;;;;;15.17;10.67;;;;;;;;;;5016432;28;20435;-89
2021/11/29 09:12:03;;;;;;;17.97;12.00;;;;;;;;;;5014376;28;20014;-89
2021/11/29 09:14:29;;;;;;;14.10;10.27;;;;;;;;;;5018168;28;20021;-88
2021/11/29 09:16:56;;;;;;;18.93;10.83;;;;;;;;;;5028730;28;20104;-87
2021/11/29 09:19:21;;;;;;;14.33;8.93;;;;;;;;;;5000077;28;20108;-88
2021/11/29 09:21:47;;;;;;;13.87;9.67;;;;;;;;;;5015490;28;20022;-89
2021/11/29 09:24:12;;;;;;;15.17;10.53;;;;;;;;;;5012962;28;20048;-89
2021/11/29 09:26:38;;;;;;;13.17;9.87;;;;;;;;;;5027741;28;20040;-89
2021/11/29 09:29:03;;;;;;;18.10;10.47;;;;;;;;;;5000899;28;20592;-89
2021/11/29 09:31:29;;;;;;;16.30;10.43;;;;;;;;;;5029069;28;20018;-89
2021/11/29 09:33:54;;;;;;;12.87;8.70;;;;;;;;;;5021277;28;20018;-89
2021/11/29 09:36:19;;;;;;;15.77;10.23;;;;;;;;;;5025526;28;20020;-90
2021/11/29 09:38:45;;;;;;;14.90;9.43;;;;;;;;;;5029181;28;20013;-90
2021/11/29 09:41:12;;;;;;;15.90;10.67;;;;;;;;;;5028851;28;20386;-89
2021/11/29 09:43:39;;;;;;;14.93;10.10;;;;;;;;;;5028073;28;20017;-89
2021/11/29 09:46:06;;;;;;;16.60;11.03;;;;;;;;;;5027133;28;20025;-90
2021/11/29 09:48:31;;;;;;;13.20;9.80;;;;;;;;;;5031390;28;20036;-88
2021/11/29 09:50:56;;;;;;;12.97;9.20;;;;;;;;;;5030693;28;20029;-87
2021/11/29 09:53:23;;;;;;;13.70;9.43;;;;;;;;;;5013371;28;20103;-87
2021/11/29 09:55:50;;;;;;;12.93;9.67;;;;;;;;;;5026758;28;20459;-89
2021/11/29 09:58:15;;;;;;;12.40;9.43;;;;;;;;;;5017513;28;20021;-88
2021/11/29 10:00:42;;;;;;;15.33;9.63;;;;;;;;;;5012209;28;20430;-87
2021/11/29 10:03:08;;;;;;;10.50;7.70;;;;;;;;;;5022381;28;20132;-89
2021/11/29 10:05:35;;;;;;;10.13;8.47;;;;;;;;;;4998779;28;20503;-86
2021/11/29 10:08:16;;;;;;;12.37;9.20;;;;;;;;;;5012385;28;20538;-86
2021/11/29 10:10:45;;;;;;;13.43;8.93;;;;;;;;;;5021003;28;20030;-87
2021/11/29 10:13:10;;;;;;;13.27;8.57;;;;;;;;;;5018133;28;20048;-87
2021/11/29 10:15:39;;;;;;;13.97;8.97;;;;;;;;;;5027397;28;20479;-90
2021/11/29 10:18:15;;;;;;;13.37;9.10;;;;;;;;;;5017273;28;20053;-87
2021/11/29 10:20:47;;;;;;;13.13;9.27;;;;;;;;;;5020591;28;20111;-88
2021/11/29 10:23:15;;;;;;;12.43;8.10;;;;;;;;;;5014261;28;20022;-89
2021/11/29 10:25:41;;;;;;;13.47;8.90;;;;;;;;;;5013964;28;20194;-89
2021/11/29 10:28:20;;;;;;;12.53;8.33;;;;;;;;;;5030180;28;20044;-88
2021/11/29 10:30:45;;;;;;;12.90;9.03;;;;;;;;;;5015365;28;20026;-89
2021/11/29 10:33:14;;;;;;;14.47;8.70;;;;;;;;;;5000500;28;20033;-88
2021/11/29 10:35:42;;;;;;;10.63;7.90;;;;;;;;;;5025956;28;20104;-87
2021/11/29 10:38:08;;;;;;;12.40;8.97;;;;;;;;;;5029882;28;20025;-87
2021/11/29 10:40:33;;;;;;;10.90;7.60;;;;;;;;;;5024420;28;20494;-87
2021/11/29 10:43:04;;;;;;;11.47;7.80;;;;;;;;;;5015392;28;20460;-89
2021/11/29 10:45:30;;;;;;;11.80;8.30;;;;;;;;;;5016727;28;20536;-89
2021/11/29 10:47:56;;;;;;;15.67;9.23;;;;;;;;;;5014175;28;20026;-87
2021/11/29 10:50:26;;;;;;;12.07;8.50;;;;;;;;;;4996595;28;20407;-87
2021/11/29 10:53:05;;;;;;;11.50;8.40;;;;;;;;;;5012668;28;20129;-89
2021/11/29 10:55:31;;;;;;;13.43;8.10;;;;;;;;;;5018789;28;20024;-89
2021/11/29 10:57:57;;;;;;;10.53;7.57;;;;;;;;;;5024064;28;20443;-87
2021/11/29 11:00:23;;;;;;;11.73;8.50;;;;;;;;;;5019290;28;20057;-89
2021/11/29 11:03:02;;;;;;;11.40;7.10;;;;;;;;;;5000786;28;20026;-88
2021/11/29 11:05:33;;;;;;;9.57;6.70;;;;;;;;;;5021332;28;20029;-88
2021/11/29 11:08:06;;;;;;;10.23;7.37;;;;;;;;;;5014509;28;20151;-88
2021/11/29 11:10:33;;;;;;;11.00;6.43;;;;;;;;;;5031023;28;20109;-88
2021/11/29 11:12:59;;;;;;;10.20;7.57;;;;;;;;;;5026870;28;20021;-89
2021/11/29 11:15:24;;;;;;;9.37;7.13;;;;;;;;;;5018297;28;20033;-87
2021/11/29 11:17:51;;;;;;;8.87;6.70;;;;;;;;;;4996687;28;20041;-89
2021/11/29 11:20:16;;;;;;;8.70;6.07;;;;;;;;;;5023620;28;20083;-88
2021/11/29 11:22:45;;;;;;;8.27;6.73;;;;;;;;;;5026498;28;20083;-89
2021/11/29 11:25:11;;;;;;;11.17;6.30;;;;;;;;;;5050528;28;20052;-89
2021/11/29 11:27:36;;;;;;;11.67;7.30;;;;;;;;;;5030825;28;20082;-88
2021/11/29 11:30:17;;;;;;;9.53;5.40;;;;;;;;;;5027481;28;20455;-90
2021/11/29 11:32:54;;;;;;;9.27;6.93;;;;;;;;;;5031829;28;20048;-87
2021/11/29 11:35:21;;;;;;;8.73;6.83;;;;;;;;;;5015821;28;20018;-88
2021/11/29 11:37:52;;;;;;;8.93;5.77;;;;;;;;;;5017518;28;20472;-88
2021/11/29 11:40:20;;;;;;;9.37;7.03;;;;;;;;;;5015630;28;20032;-89
2021/11/29 11:42:46;;;;;;;8.23;5.80;;;;;;;;;;5015749;28;20492;-89
2021/11/29 11:45:22;;;;;;;9.47;6.57;;;;;;;;;;5015246;28;20072;-89
2021/11/29 11:47:48;;;;;;;8.40;5.80;;;;;;;;;;5016096;28;20133;-89
2021/11/29 11:50:15;;;;;;;8.13;6.23;;;;;;;;;;5015787;28;20479;-88
2021/11/29 11:52:41;;;;;;;9.33;6.83;;;;;;;;;;5015703;28;20064;-89
2021/11/29 11:55:13;;;;;;;9.77;6.70;;;;;;;;;;5018330;28;20037;-88
2021/11/29 11:57:39;;;;;;;8.77;6.57;;;;;;;;;;5017958;28;20064;-89
2021/11/29 12:00:08;;;;;;;8.00;6.50;;;;;;;;;;5029668;28;20538;-87
2021/11/29 12:02:42;;;;;;;7.53;5.47;;;;;;;;;;5028056;28;20033;-87
2021/11/29 12:05:35;;;;;;;6.95;4.93;;;;;;;;;;5029343;28;20052;-89
2021/11/29 12:08:28;;;;;;;8.20;6.10;;;;;;;;;;5036914;28;20032;-90
2021/11/29 12:11:11;;;;;;;6.03;5.07;;;;;;;;;;5035912;28;20033;-90
2021/11/29 12:13:52;;;;;;;6.17;4.77;;;;;;;;;;5016900;28;20144;-89
2021/11/29 12:16:48;;;;;;;5.43;4.77;;;;;;;;;;5017425;28;20527;-91
2021/11/29 12:19:25;;;;;;;5.95;4.63;;;;;;;;;;5005797;28;20451;-88
2021/11/29 12:21:52;;;;;;;6.77;4.53;;;;;;;;;;5016887;28;20361;-86
2021/11/29 12:24:20;;;;;;;6.00;4.60;;;;;;;;;;5017954;28;20739;-86
2021/11/29 12:26:46;;;;;;;6.90;5.00;;;;;;;;;;5036261;28;20026;-86
2021/11/29 12:29:20;;;;;;;7.70;4.57;;;;;;;;;;5024435;28;20478;-88
2021/11/29 12:32:11;;;;;;;5.57;4.57;;;;;;;;;;5031511;28;20025;-88
2021/11/29 12:34:49;;;;;;;4.80;3.37;;;;;;;;;;5018321;28;20036;-86
2021/11/29 12:37:22;;;;;;;4.10;3.57;;;;;;;;;;5028682;28;20459;-87
2021/11/29 12:39:54;;;;;;;4.13;3.60;;;;;;;;;;5025344;28;20021;-89
2021/11/29 12:42:28;;;;;;;6.07;4.10;;;;;;;;;;5033434;28;20028;-90
2021/11/29 12:44:58;;;;;;;5.40;3.90;;;;;;;;;;5029756;28;20029;-89
2021/11/29 12:47:29;;;;;;;5.03;3.43;;;;;;;;;;5019730;28;20097;-89
2021/11/29 12:49:56;;;;;;;3.87;3.27;;;;;;;;;;5040460;28;20044;-87
2021/11/29 12:52:35;;;;;;;6.10;3.90;;;;;;;;;;5034166;28;20391;-87
2021/11/29 12:55:01;;;;;;;3.13;2.40;;;;;;;;;;5034442;28;20048;-88
2021/11/29 12:57:29;;;;;;;4.50;3.30;;;;;;;;;;5011197;28;20465;-86
2021/11/29 13:00:09;;;;;;;4.70;3.83;;;;;;;;;;5029728;28;20103;-87
2021/11/29 13:02:37;;;;;;;6.90;3.15;;;;;;;;;;5017540;28;20099;-88
2021/11/29 13:05:22;;;;;;;5.77;3.83;;;;;;;;;;5013423;28;20076;-87
2021/11/29 13:08:02;;;;;;;4.65;3.50;;;;;;;;;;5017207;28;20060;-88
2021/11/29 13:10:46;;;;;;;5.53;3.40;;;;;;;;;;5032128;28;20021;-88
2021/11/29 13:13:30;;;;;;;4.67;3.27;;;;;;;;;;5032669;28;20017;-89
2021/11/29 13:15:55;;;;;;;4.50;3.23;;;;;;;;;;5030689;28;20096;-88
2021/11/29 13:18:39;;;;;;;5.53;3.53;;;;;;;;;;5032713;28;20103;-89
2021/11/29 13:21:04;;;;;;;5.80;3.97;;;;;;;;;;5049187;28;20022;-88
2021/11/29 13:23:30;;;;;;;5.27;3.77;;;;;;;;;;5016504;28;20029;-87
2021/11/29 13:26:03;;;;;;;5.90;4.27;;;;;;;;;;5017904;28;20381;-88
2021/11/29 13:28:28;;;;;;;7.07;4.80;;;;;;;;;;5029341;28;20040;-90
2021/11/29 13:30:54;;;;;;;6.17;4.27;;;;;;;;;;5026140;28;20045;-90
2021/11/29 13:33:19;;;;;;;7.27;3.90;;;;;;;;;;5025489;28;20112;-91
2021/11/29 13:35:45;;;;;;;5.47;3.40;;;;;;;;;;5025304;28;20467;-90
2021/11/29 13:38:11;;;;;;;4.27;3.60;;;;;;;;;;5017366;28;20079;-89
2021/11/29 13:40:36;;;;;;;3.10;1.80;;;;;;;;;;5008800;28;20088;-89
2021/11/29 13:43:03;;;;;;;2.00;1.70;;;;;;;;;;5014774;28;20036;-86
2021/11/29 13:45:31;;;;;;;2.33;1.67;;;;;;;;;;5028826;28;20533;-87
2021/11/29 13:47:59;;;;;;;4.37;2.07;;;;;;;;;;5022006;28;20083;-87
2021/11/29 13:50:26;;;;;;;3.53;1.97;;;;;;;;;;5017937;28;20072;-88
2021/11/29 13:52:52;;;;;;;3.33;2.03;;;;;;;;;;5022578;28;20025;-89
2021/11/29 13:55:19;;;;;;;3.83;1.63;;;;;;;;;;5014894;28;20029;-89
2021/11/29 13:57:46;;;;;;;1.83;1.50;;;;;;;;;;5019891;28;20026;-89
2021/11/29 14:00:15;;;;;;;2.33;1.50;;;;;;;;;;5015303;28;20057;-88
2021/11/29 14:02:41;;;;;;;3.50;1.43;;;;;;;;;;5014020;28;20028;-88
2021/11/29 14:05:09;;;;;;;1.73;1.40;;;;;;;;;;5023588;28;20026;-91
2021/11/29 14:07:55;;;;;;;2.40;1.20;;;;;;;;;;5028646;28;20040;-91
2021/11/29 14:10:32;;;;;;;2.53;1.10;;;;;;;;;;5030905;28;20021;-90
2021/11/29 14:12:59;;;;;;;4.20;2.10;;;;;;;;;;5020283;28;20018;-91
2021/11/29 14:15:29;;;;;;;2.53;1.53;;;;;;;;;;5016756;28;20037;-90
2021/11/29 14:17:55;;;;;;;4.83;2.47;;;;;;;;;;5006784;28;20026;-90
2021/11/29 14:20:23;;;;;;;11.90;3.93;;;;;;;;;;5009531;28;20037;-89
2021/11/29 14:22:52;;;;;;;5.23;3.30;;;;;;;;;;5011667;28;20025;-90
2021/11/29 14:25:17;;;;;;;5.93;3.67;;;;;;;;;;5004075;28;20087;-90
2021/11/29 14:27:43;;;;;;;5.60;3.63;;;;;;;;;;5025106;28;20022;-89